Strawbridge, Pennsylvania
Current Conditions -  °F | °C
As of 4:54 AM on Thursday 18 Dec 2014 (Local Time) from KIPT Reporting Station
Broken Clouds Broken Clouds  
Wind Chill: -4°   Ceiling: 4900
Heat Index:   Visibility: 10mi
Dew Point: -6°   Wind: 13mph
Humidity: 59%   Direction: 290°WNW
Pressure: 30.03"   Gusts: NA
Location:  41.3719°N, 76.499°W
Report Text: KIPT 180954Z AUTO 29011KT 10SM SCT040 BKN049 01/M06 A3003 RMK AO2 SLP174 T00111061
Loading
Personal Weather Stations






























Interactive Weather Map New forecast layout! Learn more

10-Day Weather Forecast

Advertisements
Track Severe Weather on mobile